Alleghany, California
Current Conditions -  °F | °C
As of 6:01 PM on Thursday 18 Dec 2014 (Local Time) from KBLU Reporting Station
Scattered Clouds Scattered Clouds  
Wind Chill:   Ceiling: Unl
Heat Index:   Visibility: 10mi
Dew Point:   Wind: 0mph
Humidity: 89%   Direction: NA
Pressure: 30.17"   Gusts: NA
Location:  39.47°N, 120.85°W
Report Text: KBLU 190201Z AUTO 00000KT 10SM SCT002 03/01 A3017 RMK AO2 T00280011
Loading
Personal Weather Stations






























Interactive Weather Map New forecast layout! Learn more

10-Day Weather Forecast

Advertisements
Track Severe Weather on mobile